sensor_id;sensor_type;location;lat;lon;timestamp;temperature;humidity
15969;DHT22;8085;53.472;9.794;2023-09-30T00:01:26;13.10;99.90
15969;DHT22;8085;53.472;9.794;2023-09-30T00:03:53;13.20;99.90
15969;DHT22;8085;53.472;9.794;2023-09-30T00:06:21;13.20;99.90
15969;DHT22;8085;53.472;9.794;2023-09-30T00:08:48;13.20;99.90
15969;DHT22;8085;53.472;9.794;2023-09-30T00:11:15;13.20;99.90
15969;DHT22;8085;53.472;9.794;2023-09-30T00:13:44;13.10;99.90
15969;DHT22;8085;53.472;9.794;2023-09-30T00:16:11;13.10;99.90
15969;DHT22;8085;53.472;9.794;2023-09-30T00:18:38;13.20;99.90
15969;DHT22;8085;53.472;9.794;2023-09-30T00:21:05;13.00;99.90
15969;DHT22;8085;53.472;9.794;2023-09-30T00:23:34;13.00;99.90
15969;DHT22;8085;53.472;9.794;2023-09-30T00:26:01;13.00;99.90
15969;DHT22;8085;53.472;9.794;2023-09-30T00:28:28;13.10;99.90
15969;DHT22;8085;53.472;9.794;2023-09-30T00:30:55;12.90;99.90
15969;DHT22;8085;53.472;9.794;2023-09-30T00:33:22;13.00;99.90
15969;DHT22;8085;53.472;9.794;2023-09-30T00:35:49;13.00;99.90
15969;DHT22;8085;53.472;9.794;2023-09-30T00:38:16;13.00;99.90
15969;DHT22;8085;53.472;9.794;2023-09-30T00:40:48;13.10;99.90
15969;DHT22;8085;53.472;9.794;2023-09-30T00:43:19;13.10;99.90
15969;DHT22;8085;53.472;9.794;2023-09-30T00:45:47;13.10;99.90
15969;DHT22;8085;53.472;9.794;2023-09-30T00:48:14;13.10;99.90
15969;DHT22;8085;53.472;9.794;2023-09-30T00:50:41;13.20;99.90
15969;DHT22;8085;53.472;9.794;2023-09-30T00:53:08;13.20;99.90
15969;DHT22;8085;53.472;9.794;2023-09-30T00:55:36;13.10;99.90
15969;DHT22;8085;53.472;9.794;2023-09-30T00:58:05;13.20;99.90
15969;DHT22;8085;53.472;9.794;2023-09-30T01:00:32;13.10;99.90
15969;DHT22;8085;53.472;9.794;2023-09-30T01:02:59;13.10;99.90
15969;DHT22;8085;53.472;9.794;2023-09-30T01:05:29;13.00;99.90
15969;DHT22;8085;53.472;9.794;2023-09-30T01:07:56;13.00;99.90
15969;DHT22;8085;53.472;9.794;2023-09-30T01:10:23;13.00;99.90
15969;DHT22;8085;53.472;9.794;2023-09-30T01:12:50;13.00;99.90
15969;DHT22;8085;53.472;9.794;2023-09-30T01:15:19;12.90;99.90
15969;DHT22;8085;53.472;9.794;2023-09-30T01:17:46;12.90;99.90
15969;DHT22;8085;53.472;9.794;2023-09-30T01:20:15;12.90;99.90
15969;DHT22;8085;53.472;9.794;2023-09-30T01:22:43;12.90;99.90
15969;DHT22;8085;53.472;9.794;2023-09-30T01:25:11;12.80;99.90
15969;DHT22;8085;53.472;9.794;2023-09-30T01:27:37;12.80;99.90
15969;DHT22;8085;53.472;9.794;2023-09-30T01:30:05;12.80;99.90
15969;DHT22;8085;53.472;9.794;2023-09-30T01:32:36;12.80;99.90
15969;DHT22;8085;53.472;9.794;2023-09-30T01:35:04;12.80;99.90
15969;DHT22;8085;53.472;9.794;2023-09-30T01:37:31;12.80;99.90
15969;DHT22;8085;53.472;9.794;2023-09-30T01:39:59;12.70;99.90
15969;DHT22;8085;53.472;9.794;2023-09-30T01:42:26;12.70;99.90
15969;DHT22;8085;53.472;9.794;2023-09-30T01:44:53;12.70;99.90
15969;DHT22;8085;53.472;9.794;2023-09-30T01:47:20;12.70;99.90
15969;DHT22;8085;53.472;9.794;2023-09-30T01:49:47;12.80;99.90
15969;DHT22;8085;53.472;9.794;2023-09-30T01:52:14;12.70;99.90
15969;DHT22;8085;53.472;9.794;2023-09-30T01:54:41;12.80;99.90
15969;DHT22;8085;53.472;9.794;2023-09-30T01:57:09;12.70;99.90
15969;DHT22;8085;53.472;9.794;2023-09-30T01:59:36;12.70;99.90
15969;DHT22;8085;53.472;9.794;2023-09-30T02:02:03;12.70;99.90
15969;DHT22;8085;53.472;9.794;2023-09-30T02:04:30;12.70;99.90
15969;DHT22;8085;53.472;9.794;2023-09-30T02:06:57;12.80;99.90
15969;DHT22;8085;53.472;9.794;2023-09-30T02:09:24;12.60;99.90
15969;DHT22;8085;53.472;9.794;2023-09-30T02:11:51;12.60;99.90
15969;DHT22;8085;53.472;9.794;2023-09-30T02:14:19;12.60;99.90
15969;DHT22;8085;53.472;9.794;2023-09-30T02:16:46;12.60;99.90
15969;DHT22;8085;53.472;9.794;2023-09-30T02:19:13;12.60;99.90
15969;DHT22;8085;53.472;9.794;2023-09-30T02:21:40;12.60;99.90
15969;DHT22;8085;53.472;9.794;2023-09-30T02:24:07;12.60;99.90
15969;DHT22;8085;53.472;9.794;2023-09-30T02:26:34;12.50;99.90
15969;DHT22;8085;53.472;9.794;2023-09-30T02:29:00;12.50;99.90
15969;DHT22;8085;53.472;9.794;2023-09-30T02:31:29;12.50;99.90
15969;DHT22;8085;53.472;9.794;2023-09-30T02:33:56;12.50;99.90
15969;DHT22;8085;53.472;9.794;2023-09-30T02:36:22;12.60;99.90
15969;DHT22;8085;53.472;9.794;2023-09-30T02:38:49;12.50;99.90
15969;DHT22;8085;53.472;9.794;2023-09-30T02:41:16;12.50;99.90
15969;DHT22;8085;53.472;9.794;2023-09-30T02:43:43;12.50;99.90
15969;DHT22;8085;53.472;9.794;2023-09-30T02:46:10;12.40;99.90
15969;DHT22;8085;53.472;9.794;2023-09-30T02:48:39;12.60;99.90
15969;DHT22;8085;53.472;9.794;2023-09-30T02:51:09;12.50;99.90
15969;DHT22;8085;53.472;9.794;2023-09-30T02:53:36;12.40;99.90
15969;DHT22;8085;53.472;9.794;2023-09-30T02:56:03;12.40;99.90
15969;DHT22;8085;53.472;9.794;2023-09-30T02:58:30;12.40;99.90
15969;DHT22;8085;53.472;9.794;2023-09-30T03:00:57;12.40;99.90
15969;DHT22;8085;53.472;9.794;2023-09-30T03:03:25;12.40;99.90
15969;DHT22;8085;53.472;9.794;2023-09-30T03:05:54;12.40;99.90
15969;DHT22;8085;53.472;9.794;2023-09-30T03:08:21;12.40;99.90
15969;DHT22;8085;53.472;9.794;2023-09-30T03:10:50;12.40;99.90
15969;DHT22;8085;53.472;9.794;2023-09-30T03:13:18;12.40;99.90
15969;DHT22;8085;53.472;9.794;2023-09-30T03:15:47;12.40;99.90
15969;DHT22;8085;53.472;9.794;2023-09-30T03:18:15;12.40;99.90
15969;DHT22;8085;53.472;9.794;2023-09-30T03:20:42;12.40;99.90
15969;DHT22;8085;53.472;9.794;2023-09-30T03:23:11;12.50;99.90
15969;DHT22;8085;53.472;9.794;2023-09-30T03:25:39;12.30;99.90
15969;DHT22;8085;53.472;9.794;2023-09-30T03:28:07;12.40;99.90
15969;DHT22;8085;53.472;9.794;2023-09-30T03:30:34;12.50;99.90
15969;DHT22;8085;53.472;9.794;2023-09-30T03:33:01;12.30;99.90
15969;DHT22;8085;53.472;9.794;2023-09-30T03:35:30;12.30;99.90
15969;DHT22;8085;53.472;9.794;2023-09-30T03:37:57;12.30;99.90
15969;DHT22;8085;53.472;9.794;2023-09-30T03:40:27;12.30;99.90
15969;DHT22;8085;53.472;9.794;2023-09-30T03:42:58;12.30;99.90
15969;DHT22;8085;53.472;9.794;2023-09-30T03:45:25;12.20;99.90
15969;DHT22;8085;53.472;9.794;2023-09-30T03:47:52;12.30;99.90
15969;DHT22;8085;53.472;9.794;2023-09-30T03:50:20;12.20;99.90
15969;DHT22;8085;53.472;9.794;2023-09-30T03:52:49;12.20;99.90
15969;DHT22;8085;53.472;9.794;2023-09-30T03:55:16;12.10;99.90
15969;DHT22;8085;53.472;9.794;2023-09-30T03:57:47;12.30;99.90
15969;DHT22;8085;53.472;9.794;2023-09-30T04:00:14;12.10;99.90
15969;DHT22;8085;53.472;9.794;2023-09-30T04:02:44;12.20;99.90
15969;DHT22;8085;53.472;9.794;2023-09-30T04:05:14;12.30;99.90
15969;DHT22;8085;53.472;9.794;2023-09-30T04:07:42;12.20;99.90
15969;DHT22;8085;53.472;9.794;2023-09-30T04:10:10;12.20;99.90
15969;DHT22;8085;53.472;9.794;2023-09-30T04:12:37;12.20;99.90
15969;DHT22;8085;53.472;9.794;2023-09-30T04:15:06;12.30;99.90
15969;DHT22;8085;53.472;9.794;2023-09-30T04:17:35;12.10;99.90
15969;DHT22;8085;53.472;9.794;2023-09-30T04:20:05;12.10;99.90
15969;DHT22;8085;53.472;9.794;2023-09-30T04:22:34;12.10;99.90
15969;DHT22;8085;53.472;9.794;2023-09-30T04:25:01;12.10;99.90
15969;DHT22;8085;53.472;9.794;2023-09-30T04:27:30;12.10;99.90
15969;DHT22;8085;53.472;9.794;2023-09-30T04:29:57;12.30;99.90
15969;DHT22;8085;53.472;9.794;2023-09-30T04:32:25;12.30;99.90
15969;DHT22;8085;53.472;9.794;2023-09-30T04:34:53;12.10;99.90
15969;DHT22;8085;53.472;9.794;2023-09-30T04:37:20;12.10;99.90
15969;DHT22;8085;53.472;9.794;2023-09-30T04:39:47;12.20;99.90
15969;DHT22;8085;53.472;9.794;2023-09-30T04:42:14;12.20;99.90
15969;DHT22;8085;53.472;9.794;2023-09-30T04:44:43;12.40;99.90
15969;DHT22;8085;53.472;9.794;2023-09-30T04:47:10;12.20;99.90
15969;DHT22;8085;53.472;9.794;2023-09-30T04:49:38;12.20;99.90
15969;DHT22;8085;53.472;9.794;2023-09-30T04:52:05;12.20;99.90
15969;DHT22;8085;53.472;9.794;2023-09-30T04:54:33;12.30;99.90
15969;DHT22;8085;53.472;9.794;2023-09-30T04:57:01;12.30;99.90
15969;DHT22;8085;53.472;9.794;2023-09-30T04:59:28;12.30;99.90
15969;DHT22;8085;53.472;9.794;2023-09-30T05:01:55;12.40;99.90
15969;DHT22;8085;53.472;9.794;2023-09-30T05:04:22;12.30;99.90
15969;DHT22;8085;53.472;9.794;2023-09-30T05:06:52;12.30;99.90
15969;DHT22;8085;53.472;9.794;2023-09-30T05:09:19;12.30;99.90
15969;DHT22;8085;53.472;9.794;2023-09-30T05:11:46;12.30;99.90
15969;DHT22;8085;53.472;9.794;2023-09-30T05:14:13;12.20;99.90
15969;DHT22;8085;53.472;9.794;2023-09-30T05:16:42;12.20;99.90
15969;DHT22;8085;53.472;9.794;2023-09-30T05:19:09;12.30;99.90
15969;DHT22;8085;53.472;9.794;2023-09-30T05:21:36;12.30;99.90
15969;DHT22;8085;53.472;9.794;2023-09-30T05:24:05;12.30;99.90
15969;DHT22;8085;53.472;9.794;2023-09-30T05:26:32;12.30;99.90
15969;DHT22;8085;53.472;9.794;2023-09-30T05:28:59;12.30;99.90
15969;DHT22;8085;53.472;9.794;2023-09-30T05:31:26;12.30;99.90
15969;DHT22;8085;53.472;9.794;2023-09-30T05:33:53;12.20;99.90
15969;DHT22;8085;53.472;9.794;2023-09-30T05:36:20;12.30;99.90
15969;DHT22;8085;53.472;9.794;2023-09-30T05:38:47;12.30;99.90
15969;DHT22;8085;53.472;9.794;2023-09-30T05:41:16;12.10;99.90
15969;DHT22;8085;53.472;9.794;2023-09-30T05:43:43;12.20;99.90
15969;DHT22;8085;53.472;9.794;2023-09-30T05:46:11;12.20;99.90
15969;DHT22;8085;53.472;9.794;2023-09-30T05:48:38;12.20;99.90
15969;DHT22;8085;53.472;9.794;2023-09-30T05:51:05;12.30;99.90
15969;DHT22;8085;53.472;9.794;2023-09-30T05:53:32;12.30;99.90
15969;DHT22;8085;53.472;9.794;2023-09-30T05:55:59;12.30;99.90
15969;DHT22;8085;53.472;9.794;2023-09-30T05:58:27;12.30;99.90
15969;DHT22;8085;53.472;9.794;2023-09-30T06:00:54;12.30;99.90
15969;DHT22;8085;53.472;9.794;2023-09-30T06:03:21;12.30;99.90
15969;DHT22;8085;53.472;9.794;2023-09-30T06:05:48;12.30;99.90
15969;DHT22;8085;53.472;9.794;2023-09-30T06:08:15;12.40;99.90
15969;DHT22;8085;53.472;9.794;2023-09-30T06:10:43;12.30;99.90
15969;DHT22;8085;53.472;9.794;2023-09-30T06:13:10;12.30;99.90
15969;DHT22;8085;53.472;9.794;2023-09-30T06:15:39;12.20;99.90
15969;DHT22;8085;53.472;9.794;2023-09-30T06:18:08;12.30;99.90
15969;DHT22;8085;53.472;9.794;2023-09-30T06:20:37;12.30;99.90
15969;DHT22;8085;53.472;9.794;2023-09-30T06:23:04;12.30;99.90
15969;DHT22;8085;53.472;9.794;2023-09-30T06:25:31;12.30;99.90
15969;DHT22;8085;53.472;9.794;2023-09-30T06:27:59;12.30;99.90
15969;DHT22;8085;53.472;9.794;2023-09-30T06:30:26;12.30;99.90
15969;DHT22;8085;53.472;9.794;2023-09-30T06:32:56;12.40;99.90
15969;DHT22;8085;53.472;9.794;2023-09-30T06:35:25;12.40;99.90
15969;DHT22;8085;53.472;9.794;2023-09-30T06:37:52;12.40;99.90
15969;DHT22;8085;53.472;9.794;2023-09-30T06:40:19;12.40;99.90
15969;DHT22;8085;53.472;9.794;2023-09-30T06:42:46;12.40;99.90
15969;DHT22;8085;53.472;9.794;2023-09-30T06:45:13;12.40;99.90
15969;DHT22;8085;53.472;9.794;2023-09-30T06:47:41;12.40;99.90
15969;DHT22;8085;53.472;9.794;2023-09-30T06:50:11;12.60;99.90
15969;DHT22;8085;53.472;9.794;2023-09-30T06:52:42;12.50;99.90
15969;DHT22;8085;53.472;9.794;2023-09-30T06:55:11;12.50;99.90
15969;DHT22;8085;53.472;9.794;2023-09-30T06:57:40;12.60;99.90
15969;DHT22;8085;53.472;9.794;2023-09-30T07:00:08;12.60;99.90
15969;DHT22;8085;53.472;9.794;2023-09-30T07:02:37;12.70;99.90
15969;DHT22;8085;53.472;9.794;2023-09-30T07:05:06;12.70;99.90
15969;DHT22;8085;53.472;9.794;2023-09-30T07:07:35;12.70;99.90
15969;DHT22;8085;53.472;9.794;2023-09-30T07:10:02;12.80;99.90
15969;DHT22;8085;53.472;9.794;2023-09-30T07:12:29;12.90;99.90
15969;DHT22;8085;53.472;9.794;2023-09-30T07:14:57;12.90;99.90
15969;DHT22;8085;53.472;9.794;2023-09-30T07:17:24;13.00;99.90
15969;DHT22;8085;53.472;9.794;2023-09-30T07:19:51;13.10;99.90
15969;DHT22;8085;53.472;9.794;2023-09-30T07:22:18;13.10;99.90
15969;DHT22;8085;53.472;9.794;2023-09-30T07:24:47;13.10;99.90
15969;DHT22;8085;53.472;9.794;2023-09-30T07:27:14;13.20;99.90
15969;DHT22;8085;53.472;9.794;2023-09-30T07:29:41;13.30;99.90
15969;DHT22;8085;53.472;9.794;2023-09-30T07:32:07;13.30;99.90
15969;DHT22;8085;53.472;9.794;2023-09-30T07:34:35;13.40;99.90
15969;DHT22;8085;53.472;9.794;2023-09-30T07:37:01;13.40;99.90
15969;DHT22;8085;53.472;9.794;2023-09-30T07:39:29;13.40;99.90
15969;DHT22;8085;53.472;9.794;2023-09-30T07:41:58;13.50;99.90
15969;DHT22;8085;53.472;9.794;2023-09-30T07:44:24;13.60;99.90
15969;DHT22;8085;53.472;9.794;2023-09-30T07:46:52;13.60;99.90
15969;DHT22;8085;53.472;9.794;2023-09-30T07:49:19;13.50;99.90
15969;DHT22;8085;53.472;9.794;2023-09-30T07:51:45;13.80;99.90
15969;DHT22;8085;53.472;9.794;2023-09-30T07:54:12;13.80;99.90
15969;DHT22;8085;53.472;9.794;2023-09-30T07:56:39;13.90;99.90
15969;DHT22;8085;53.472;9.794;2023-09-30T07:59:07;13.90;99.90
15969;DHT22;8085;53.472;9.794;2023-09-30T08:01:35;14.00;99.90
15969;DHT22;8085;53.472;9.794;2023-09-30T08:04:03;14.00;99.90
15969;DHT22;8085;53.472;9.794;2023-09-30T08:06:30;14.10;99.90
15969;DHT22;8085;53.472;9.794;2023-09-30T08:08:57;14.10;99.90
15969;DHT22;8085;53.472;9.794;2023-09-30T08:11:24;14.20;99.90
15969;DHT22;8085;53.472;9.794;2023-09-30T08:13:53;14.20;99.90
15969;DHT22;8085;53.472;9.794;2023-09-30T08:16:21;14.30;99.90
15969;DHT22;8085;53.472;9.794;2023-09-30T08:18:48;14.30;99.90
15969;DHT22;8085;53.472;9.794;2023-09-30T08:21:15;14.40;99.90
15969;DHT22;8085;53.472;9.794;2023-09-30T08:23:42;14.40;99.90
15969;DHT22;8085;53.472;9.794;2023-09-30T08:26:09;14.40;99.90
15969;DHT22;8085;53.472;9.794;2023-09-30T08:28:37;14.60;99.90
15969;DHT22;8085;53.472;9.794;2023-09-30T08:31:04;14.60;99.90
15969;DHT22;8085;53.472;9.794;2023-09-30T08:33:32;14.70;99.90
15969;DHT22;8085;53.472;9.794;2023-09-30T08:36:02;14.80;99.90
15969;DHT22;8085;53.472;9.794;2023-09-30T08:38:33;14.80;99.90
15969;DHT22;8085;53.472;9.794;2023-09-30T08:41:01;14.80;99.90
15969;DHT22;8085;53.472;9.794;2023-09-30T08:43:29;14.90;99.90
15969;DHT22;8085;53.472;9.794;2023-09-30T08:45:58;15.00;99.90
15969;DHT22;8085;53.472;9.794;2023-09-30T08:48:26;15.00;99.90
15969;DHT22;8085;53.472;9.794;2023-09-30T08:50:55;15.20;99.90
15969;DHT22;8085;53.472;9.794;2023-09-30T08:53:23;15.20;99.90
15969;DHT22;8085;53.472;9.794;2023-09-30T08:55:53;15.20;99.90
15969;DHT22;8085;53.472;9.794;2023-09-30T08:58:23;15.30;99.90
15969;DHT22;8085;53.472;9.794;2023-09-30T09:00:51;15.30;99.90
15969;DHT22;8085;53.472;9.794;2023-09-30T09:03:19;15.40;99.90
15969;DHT22;8085;53.472;9.794;2023-09-30T09:05:46;15.40;99.90
15969;DHT22;8085;53.472;9.794;2023-09-30T09:08:15;15.50;99.90
15969;DHT22;8085;53.472;9.794;2023-09-30T09:10:55;15.60;99.90
15969;DHT22;8085;53.472;9.794;2023-09-30T09:13:23;15.60;99.90
15969;DHT22;8085;53.472;9.794;2023-09-30T09:16:05;15.60;99.90
15969;DHT22;8085;53.472;9.794;2023-09-30T09:18:33;15.80;99.90
15969;DHT22;8085;53.472;9.794;2023-09-30T09:21:12;15.80;99.90
15969;DHT22;8085;53.472;9.794;2023-09-30T09:23:41;15.90;99.90
15969;DHT22;8085;53.472;9.794;2023-09-30T09:26:10;16.00;99.90
15969;DHT22;8085;53.472;9.794;2023-09-30T09:28:37;16.00;99.90
15969;DHT22;8085;53.472;9.794;2023-09-30T09:31:25;16.10;99.90
15969;DHT22;8085;53.472;9.794;2023-09-30T09:33:52;16.10;99.90
15969;DHT22;8085;53.472;9.794;2023-09-30T09:36:20;16.20;99.90
15969;DHT22;8085;53.472;9.794;2023-09-30T09:38:49;16.30;99.90
15969;DHT22;8085;53.472;9.794;2023-09-30T09:41:19;16.30;99.90
15969;DHT22;8085;53.472;9.794;2023-09-30T09:43:49;16.40;99.90
15969;DHT22;8085;53.472;9.794;2023-09-30T09:46:17;16.60;99.70
15969;DHT22;8085;53.472;9.794;2023-09-30T09:48:45;16.60;99.10
15969;DHT22;8085;53.472;9.794;2023-09-30T09:51:13;16.60;98.10
15969;DHT22;8085;53.472;9.794;2023-09-30T09:53:42;16.70;97.90
15969;DHT22;8085;53.472;9.794;2023-09-30T09:56:10;16.70;98.00
15969;DHT22;8085;53.472;9.794;2023-09-30T09:58:40;16.80;98.00
15969;DHT22;8085;53.472;9.794;2023-09-30T10:01:09;16.80;97.80
15969;DHT22;8085;53.472;9.794;2023-09-30T10:03:37;16.90;97.70
15969;DHT22;8085;53.472;9.794;2023-09-30T10:06:05;17.00;97.50
15969;DHT22;8085;53.472;9.794;2023-09-30T10:08:38;17.10;96.90
15969;DHT22;8085;53.472;9.794;2023-09-30T10:11:07;17.10;96.50
15969;DHT22;8085;53.472;9.794;2023-09-30T10:13:52;17.20;95.80
15969;DHT22;8085;53.472;9.794;2023-09-30T10:16:47;17.10;95.80
15969;DHT22;8085;53.472;9.794;2023-09-30T10:19:16;17.20;95.30
15969;DHT22;8085;53.472;9.794;2023-09-30T10:22:21;17.30;95.80
15969;DHT22;8085;53.472;9.794;2023-09-30T10:24:49;17.30;95.60
15969;DHT22;8085;53.472;9.794;2023-09-30T10:27:43;17.40;95.10
15969;DHT22;8085;53.472;9.794;2023-09-30T10:30:13;17.50;94.80
15969;DHT22;8085;53.472;9.794;2023-09-30T10:35:43;17.60;94.00
15969;DHT22;8085;53.472;9.794;2023-09-30T10:38:41;17.70;92.90
15969;DHT22;8085;53.472;9.794;2023-09-30T10:41:08;17.70;92.10
15969;DHT22;8085;53.472;9.794;2023-09-30T10:43:38;17.70;92.50
15969;DHT22;8085;53.472;9.794;2023-09-30T10:46:31;17.80;92.90
15969;DHT22;8085;53.472;9.794;2023-09-30T10:49:15;17.80;92.40
15969;DHT22;8085;53.472;9.794;2023-09-30T10:51:51;17.90;92.20
15969;DHT22;8085;53.472;9.794;2023-09-30T10:54:22;18.00;91.30
15969;DHT22;8085;53.472;9.794;2023-09-30T10:56:53;18.10;91.30
15969;DHT22;8085;53.472;9.794;2023-09-30T10:59:21;18.20;91.50
15969;DHT22;8085;53.472;9.794;2023-09-30T11:01:50;18.20;90.30
15969;DHT22;8085;53.472;9.794;2023-09-30T11:04:19;18.30;90.50
15969;DHT22;8085;53.472;9.794;2023-09-30T11:06:47;18.30;90.60
15969;DHT22;8085;53.472;9.794;2023-09-30T11:09:19;18.40;90.30
15969;DHT22;8085;53.472;9.794;2023-09-30T11:11:46;18.50;89.40
15969;DHT22;8085;53.472;9.794;2023-09-30T11:14:19;18.60;89.50
15969;DHT22;8085;53.472;9.794;2023-09-30T11:16:47;18.60;87.50
15969;DHT22;8085;53.472;9.794;2023-09-30T11:19:16;18.70;86.10
15969;DHT22;8085;53.472;9.794;2023-09-30T11:21:44;18.70;83.60
15969;DHT22;8085;53.472;9.794;2023-09-30T11:24:11;18.70;83.50
15969;DHT22;8085;53.472;9.794;2023-09-30T11:26:38;18.70;82.50
15969;DHT22;8085;53.472;9.794;2023-09-30T11:29:08;18.70;82.60
15969;DHT22;8085;53.472;9.794;2023-09-30T11:31:40;18.70;81.90
15969;DHT22;8085;53.472;9.794;2023-09-30T11:34:08;18.60;80.30
15969;DHT22;8085;53.472;9.794;2023-09-30T11:36:39;18.60;80.30
15969;DHT22;8085;53.472;9.794;2023-09-30T11:39:08;18.60;81.30
15969;DHT22;8085;53.472;9.794;2023-09-30T11:41:36;18.60;81.70
15969;DHT22;8085;53.472;9.794;2023-09-30T11:44:08;18.70;81.50
15969;DHT22;8085;53.472;9.794;2023-09-30T11:46:49;18.80;81.90
15969;DHT22;8085;53.472;9.794;2023-09-30T11:49:25;18.90;78.80
15969;DHT22;8085;53.472;9.794;2023-09-30T11:51:55;19.00;80.20
15969;DHT22;8085;53.472;9.794;2023-09-30T11:54:22;19.00;77.70
15969;DHT22;8085;53.472;9.794;2023-09-30T11:56:49;19.00;75.50
15969;DHT22;8085;53.472;9.794;2023-09-30T11:59:17;18.90;75.30
15969;DHT22;8085;53.472;9.794;2023-09-30T12:01:48;18.90;77.60
15969;DHT22;8085;53.472;9.794;2023-09-30T12:04:17;18.80;77.10
15969;DHT22;8085;53.472;9.794;2023-09-30T12:06:45;18.90;77.00
15969;DHT22;8085;53.472;9.794;2023-09-30T12:09:14;19.00;77.00
15969;DHT22;8085;53.472;9.794;2023-09-30T12:11:42;19.00;76.00
15969;DHT22;8085;53.472;9.794;2023-09-30T12:14:10;19.10;74.10
15969;DHT22;8085;53.472;9.794;2023-09-30T12:16:38;19.20;73.70
15969;DHT22;8085;53.472;9.794;2023-09-30T12:19:05;19.10;74.00
15969;DHT22;8085;53.472;9.794;2023-09-30T12:21:32;19.10;75.00
15969;DHT22;8085;53.472;9.794;2023-09-30T12:24:00;19.10;75.10
15969;DHT22;8085;53.472;9.794;2023-09-30T12:26:29;19.20;74.90
15969;DHT22;8085;53.472;9.794;2023-09-30T12:28:56;19.30;71.60
15969;DHT22;8085;53.472;9.794;2023-09-30T12:31:23;19.30;69.80
15969;DHT22;8085;53.472;9.794;2023-09-30T12:33:50;19.20;69.70
15969;DHT22;8085;53.472;9.794;2023-09-30T12:36:18;19.20;70.50
15969;DHT22;8085;53.472;9.794;2023-09-30T12:38:45;19.30;69.30
15969;DHT22;8085;53.472;9.794;2023-09-30T12:41:12;19.40;70.00
15969;DHT22;8085;53.472;9.794;2023-09-30T12:43:41;19.50;70.70
15969;DHT22;8085;53.472;9.794;2023-09-30T12:46:08;19.70;70.50
15969;DHT22;8085;53.472;9.794;2023-09-30T12:48:35;19.90;68.70
15969;DHT22;8085;53.472;9.794;2023-09-30T12:51:04;20.00;66.50
15969;DHT22;8085;53.472;9.794;2023-09-30T12:53:32;19.90;66.30
15969;DHT22;8085;53.472;9.794;2023-09-30T12:55:59;19.90;66.40
15969;DHT22;8085;53.472;9.794;2023-09-30T12:58:26;19.80;66.60
15969;DHT22;8085;53.472;9.794;2023-09-30T13:00:56;19.90;66.90
15969;DHT22;8085;53.472;9.794;2023-09-30T13:03:23;19.90;66.40
15969;DHT22;8085;53.472;9.794;2023-09-30T13:05:49;20.00;67.60
15969;DHT22;8085;53.472;9.794;2023-09-30T13:08:16;20.00;67.50
15969;DHT22;8085;53.472;9.794;2023-09-30T13:10:44;19.90;67.10
15969;DHT22;8085;53.472;9.794;2023-09-30T13:13:11;19.90;68.20
15969;DHT22;8085;53.472;9.794;2023-09-30T13:15:38;19.90;68.10
15969;DHT22;8085;53.472;9.794;2023-09-30T13:18:07;20.00;67.20
15969;DHT22;8085;53.472;9.794;2023-09-30T13:20:34;20.00;67.10
15969;DHT22;8085;53.472;9.794;2023-09-30T13:23:01;19.90;66.10
15969;DHT22;8085;53.472;9.794;2023-09-30T13:25:29;20.00;65.50
15969;DHT22;8085;53.472;9.794;2023-09-30T13:27:56;20.00;65.00
15969;DHT22;8085;53.472;9.794;2023-09-30T13:30:23;20.00;64.80
15969;DHT22;8085;53.472;9.794;2023-09-30T13:32:50;20.00;64.20
15969;DHT22;8085;53.472;9.794;2023-09-30T13:35:18;20.00;64.80
15969;DHT22;8085;53.472;9.794;2023-09-30T13:37:45;20.00;64.10
15969;DHT22;8085;53.472;9.794;2023-09-30T13:40:13;20.00;64.10
15969;DHT22;8085;53.472;9.794;2023-09-30T13:42:40;20.10;64.00
15969;DHT22;8085;53.472;9.794;2023-09-30T13:45:08;20.10;63.70
15969;DHT22;8085;53.472;9.794;2023-09-30T13:47:35;20.10;65.10
15969;DHT22;8085;53.472;9.794;2023-09-30T13:50:03;20.10;64.10
15969;DHT22;8085;53.472;9.794;2023-09-30T13:52:33;20.20;63.90
15969;DHT22;8085;53.472;9.794;2023-09-30T13:55:01;20.20;63.00
15969;DHT22;8085;53.472;9.794;2023-09-30T13:57:28;20.10;62.30
15969;DHT22;8085;53.472;9.794;2023-09-30T13:59:55;20.00;62.50
15969;DHT22;8085;53.472;9.794;2023-09-30T14:02:22;19.80;62.90
15969;DHT22;8085;53.472;9.794;2023-09-30T14:04:49;19.70;63.10
15969;DHT22;8085;53.472;9.794;2023-09-30T14:07:16;19.70;63.80
15969;DHT22;8085;53.472;9.794;2023-09-30T14:09:46;19.60;63.40
15969;DHT22;8085;53.472;9.794;2023-09-30T14:12:13;19.50;63.70
15969;DHT22;8085;53.472;9.794;2023-09-30T14:14:40;19.40;63.10
15969;DHT22;8085;53.472;9.794;2023-09-30T14:17:07;19.30;62.80
15969;DHT22;8085;53.472;9.794;2023-09-30T14:19:37;19.20;62.20
15969;DHT22;8085;53.472;9.794;2023-09-30T14:22:04;19.10;63.10
15969;DHT22;8085;53.472;9.794;2023-09-30T14:24:31;19.10;63.50
15969;DHT22;8085;53.472;9.794;2023-09-30T14:27:01;19.10;63.50
15969;DHT22;8085;53.472;9.794;2023-09-30T14:29:28;19.10;63.10
15969;DHT22;8085;53.472;9.794;2023-09-30T14:31:55;19.10;62.80
15969;DHT22;8085;53.472;9.794;2023-09-30T14:34:23;19.20;63.80
15969;DHT22;8085;53.472;9.794;2023-09-30T14:36:50;19.20;63.90
15969;DHT22;8085;53.472;9.794;2023-09-30T14:39:17;19.20;64.00
15969;DHT22;8085;53.472;9.794;2023-09-30T14:41:45;19.30;63.20
15969;DHT22;8085;53.472;9.794;2023-09-30T14:44:14;19.30;62.30
15969;DHT22;8085;53.472;9.794;2023-09-30T14:46:41;19.30;62.20
15969;DHT22;8085;53.472;9.794;2023-09-30T14:49:08;19.30;63.30
15969;DHT22;8085;53.472;9.794;2023-09-30T14:51:36;19.30;64.20
15969;DHT22;8085;53.472;9.794;2023-09-30T14:54:04;19.30;64.70
15969;DHT22;8085;53.472;9.794;2023-09-30T14:56:31;19.40;64.30
15969;DHT22;8085;53.472;9.794;2023-09-30T14:58:58;19.30;64.20
15969;DHT22;8085;53.472;9.794;2023-09-30T15:01:26;19.30;63.30
15969;DHT22;8085;53.472;9.794;2023-09-30T15:03:54;19.20;63.90
15969;DHT22;8085;53.472;9.794;2023-09-30T15:06:22;19.10;63.80
15969;DHT22;8085;53.472;9.794;2023-09-30T15:08:50;19.10;64.10
15969;DHT22;8085;53.472;9.794;2023-09-30T15:11:17;19.00;64.40
15969;DHT22;8085;53.472;9.794;2023-09-30T15:13:44;19.00;64.10
15969;DHT22;8085;53.472;9.794;2023-09-30T15:16:16;18.80;64.80
15969;DHT22;8085;53.472;9.794;2023-09-30T15:18:45;18.70;65.20
15969;DHT22;8085;53.472;9.794;2023-09-30T15:21:12;18.70;65.50
15969;DHT22;8085;53.472;9.794;2023-09-30T15:23:40;18.60;65.80
15969;DHT22;8085;53.472;9.794;2023-09-30T15:26:07;18.60;66.40
15969;DHT22;8085;53.472;9.794;2023-09-30T15:28:34;18.50;66.80
15969;DHT22;8085;53.472;9.794;2023-09-30T15:31:01;18.40;67.20
15969;DHT22;8085;53.472;9.794;2023-09-30T15:33:28;18.50;67.60
15969;DHT22;8085;53.472;9.794;2023-09-30T15:35:56;18.40;67.70
15969;DHT22;8085;53.472;9.794;2023-09-30T15:38:23;18.40;68.20
15969;DHT22;8085;53.472;9.794;2023-09-30T15:40:52;18.30;68.50
15969;DHT22;8085;53.472;9.794;2023-09-30T15:43:19;18.30;68.70
15969;DHT22;8085;53.472;9.794;2023-09-30T15:45:46;18.30;68.20
15969;DHT22;8085;53.472;9.794;2023-09-30T15:48:13;18.30;68.40
15969;DHT22;8085;53.472;9.794;2023-09-30T15:50:41;18.30;68.40
15969;DHT22;8085;53.472;9.794;2023-09-30T15:53:10;18.20;68.50
15969;DHT22;8085;53.472;9.794;2023-09-30T15:55:37;18.20;68.80